sensor_id;sensor_type;location;lat;lon;timestamp;pressure;altitude;pressure_sealevel;temperature;humidity
63088;BME280;49173;43.164;27.786;2024-01-27T00:01:36;100960.25;;;1.17;97.83
63088;BME280;49173;43.164;27.786;2024-01-27T00:04:01;100962.00;;;1.17;97.58
63088;BME280;49173;43.164;27.786;2024-01-27T00:06:27;100974.41;;;1.13;97.86
63088;BME280;49173;43.164;27.786;2024-01-27T00:08:53;100973.44;;;1.19;97.74
63088;BME280;49173;43.164;27.786;2024-01-27T00:11:19;100975.22;;;1.21;97.92
63088;BME280;49173;43.164;27.786;2024-01-27T00:13:45;100983.16;;;1.17;97.95
63088;BME280;49173;43.164;27.786;2024-01-27T00:16:11;100982.31;;;1.13;97.61
63088;BME280;49173;43.164;27.786;2024-01-27T00:18:36;100986.69;;;1.13;97.93
63088;BME280;49173;43.164;27.786;2024-01-27T00:21:03;100988.50;;;1.10;97.85
63088;BME280;49173;43.164;27.786;2024-01-27T00:23:28;100990.28;;;1.05;98.22
63088;BME280;49173;43.164;27.786;2024-01-27T00:25:54;100984.09;;;1.08;98.26
63088;BME280;49173;43.164;27.786;2024-01-27T00:28:19;100983.22;;;1.07;98.34
63088;BME280;49173;43.164;27.786;2024-01-27T00:30:45;100987.63;;;1.08;97.96
63088;BME280;49173;43.164;27.786;2024-01-27T00:33:11;100991.19;;;1.06;98.08
63088;BME280;49173;43.164;27.786;2024-01-27T00:35:36;100983.19;;;1.14;98.15
63088;BME280;49173;43.164;27.786;2024-01-27T00:38:03;100985.81;;;1.15;97.45
63088;BME280;49173;43.164;27.786;2024-01-27T00:40:28;100984.94;;;1.12;97.48
63088;BME280;49173;43.164;27.786;2024-01-27T00:42:54;100991.16;;;1.09;97.38
63088;BME280;49173;43.164;27.786;2024-01-27T00:45:20;100978.91;;;0.99;97.60
63088;BME280;49173;43.164;27.786;2024-01-27T00:47:49;100983.28;;;1.01;97.52
63088;BME280;49173;43.164;27.786;2024-01-27T00:50:14;100983.25;;;0.98;97.42
63088;BME280;49173;43.164;27.786;2024-01-27T00:52:40;100982.34;;;1.07;96.92
63088;BME280;49173;43.164;27.786;2024-01-27T00:55:07;100975.34;;;1.01;96.64
63088;BME280;49173;43.164;27.786;2024-01-27T00:57:32;100979.72;;;1.04;96.88
63088;BME280;49173;43.164;27.786;2024-01-27T00:59:59;100980.66;;;0.97;96.72
63088;BME280;49173;43.164;27.786;2024-01-27T01:02:25;100982.41;;;0.96;97.08
63088;BME280;49173;43.164;27.786;2024-01-27T01:04:51;100980.69;;;0.94;96.93
63088;BME280;49173;43.164;27.786;2024-01-27T01:07:16;100985.97;;;0.89;96.84
63088;BME280;49173;43.164;27.786;2024-01-27T01:09:42;100993.94;;;0.83;96.95
63088;BME280;49173;43.164;27.786;2024-01-27T01:12:07;100993.91;;;0.85;97.31
63088;BME280;49173;43.164;27.786;2024-01-27T01:14:34;100986.00;;;0.85;97.13
63088;BME280;49173;43.164;27.786;2024-01-27T01:17:00;100991.28;;;0.88;97.37
63088;BME280;49173;43.164;27.786;2024-01-27T01:19:25;100984.22;;;0.88;97.90
63088;BME280;49173;43.164;27.786;2024-01-27T01:21:51;100982.47;;;0.89;97.55
63088;BME280;49173;43.164;27.786;2024-01-27T01:24:17;100975.41;;;0.88;97.18
63088;BME280;49173;43.164;27.786;2024-01-27T01:26:44;100970.13;;;0.88;97.54
63088;BME280;49173;43.164;27.786;2024-01-27T01:29:09;100964.84;;;0.89;98.02
63088;BME280;49173;43.164;27.786;2024-01-27T01:31:36;100956.88;;;0.95;97.29
63088;BME280;49173;43.164;27.786;2024-01-27T01:34:02;100948.06;;;0.95;97.32
63088;BME280;49173;43.164;27.786;2024-01-27T01:36:28;100955.09;;;0.97;96.41
63088;BME280;49173;43.164;27.786;2024-01-27T01:38:55;100956.84;;;0.97;96.84
63088;BME280;49173;43.164;27.786;2024-01-27T01:41:20;100955.09;;;0.99;96.31
63088;BME280;49173;43.164;27.786;2024-01-27T01:43:46;100949.84;;;0.93;96.69
63088;BME280;49173;43.164;27.786;2024-01-27T01:46:11;100953.38;;;0.90;97.10
63088;BME280;49173;43.164;27.786;2024-01-27T01:48:36;100956.88;;;0.95;96.87
63088;BME280;49173;43.164;27.786;2024-01-27T01:51:02;100950.78;;;0.86;97.41
63088;BME280;49173;43.164;27.786;2024-01-27T01:53:28;100955.16;;;0.83;97.39
63088;BME280;49173;43.164;27.786;2024-01-27T01:55:53;100961.38;;;0.81;97.94
63088;BME280;49173;43.164;27.786;2024-01-27T01:58:20;100951.63;;;0.85;97.85
63088;BME280;49173;43.164;27.786;2024-01-27T02:00:46;100949.91;;;0.82;97.50
63088;BME280;49173;43.164;27.786;2024-01-27T02:03:12;100957.84;;;0.80;98.20
63088;BME280;49173;43.164;27.786;2024-01-27T02:05:38;100946.41;;;0.80;97.83
63088;BME280;49173;43.164;27.786;2024-01-27T02:08:03;100938.47;;;0.80;97.39
63088;BME280;49173;43.164;27.786;2024-01-27T02:10:29;100939.34;;;0.80;97.02
63088;BME280;49173;43.164;27.786;2024-01-27T02:13:02;100934.09;;;0.74;97.16
63088;BME280;49173;43.164;27.786;2024-01-27T02:15:28;100938.50;;;0.74;97.28
63088;BME280;49173;43.164;27.786;2024-01-27T02:17:53;100927.06;;;0.70;97.54
63088;BME280;49173;43.164;27.786;2024-01-27T02:20:19;100932.38;;;0.72;97.42
63088;BME280;49173;43.164;27.786;2024-01-27T02:22:44;100931.50;;;0.68;97.77
63088;BME280;49173;43.164;27.786;2024-01-27T02:25:10;100935.06;;;0.64;97.52
63088;BME280;49173;43.164;27.786;2024-01-27T02:27:35;100931.53;;;0.56;97.97
63088;BME280;49173;43.164;27.786;2024-01-27T02:30:01;100932.44;;;0.57;97.63
63088;BME280;49173;43.164;27.786;2024-01-27T02:32:28;100930.66;;;0.55;98.07
63088;BME280;49173;43.164;27.786;2024-01-27T02:34:53;100927.19;;;0.50;97.71
63088;BME280;49173;43.164;27.786;2024-01-27T02:37:19;100917.53;;;0.46;98.12
63088;BME280;49173;43.164;27.786;2024-01-27T02:39:46;100917.56;;;0.43;98.08
63088;BME280;49173;43.164;27.786;2024-01-27T02:42:11;100914.03;;;0.44;98.02
63088;BME280;49173;43.164;27.786;2024-01-27T02:44:37;100913.13;;;0.45;98.42
63088;BME280;49173;43.164;27.786;2024-01-27T02:47:02;100899.94;;;0.41;98.35
63088;BME280;49173;43.164;27.786;2024-01-27T02:49:28;100894.66;;;0.41;98.06
63088;BME280;49173;43.164;27.786;2024-01-27T02:51:56;100901.72;;;0.39;98.52
63088;BME280;49173;43.164;27.786;2024-01-27T02:54:21;100894.69;;;0.38;98.46
63088;BME280;49173;43.164;27.786;2024-01-27T02:56:47;100898.22;;;0.37;98.33
63088;BME280;49173;43.164;27.786;2024-01-27T02:59:13;100904.38;;;0.36;98.47
63088;BME280;49173;43.164;27.786;2024-01-27T03:01:38;100897.34;;;0.38;98.17
63088;BME280;49173;43.164;27.786;2024-01-27T03:04:04;100901.72;;;0.39;98.26
63088;BME280;49173;43.164;27.786;2024-01-27T03:06:29;100895.56;;;0.43;97.85
63088;BME280;49173;43.164;27.786;2024-01-27T03:08:55;100892.88;;;0.46;97.92
63088;BME280;49173;43.164;27.786;2024-01-27T03:11:20;100899.06;;;0.40;97.63
63088;BME280;49173;43.164;27.786;2024-01-27T03:13:46;100905.22;;;0.41;97.77
63088;BME280;49173;43.164;27.786;2024-01-27T03:16:12;100916.69;;;0.43;97.38
63088;BME280;49173;43.164;27.786;2024-01-27T03:18:38;100914.91;;;0.43;97.34
63088;BME280;49173;43.164;27.786;2024-01-27T03:21:05;100912.28;;;0.43;96.68
63088;BME280;49173;43.164;27.786;2024-01-27T03:23:31;100918.47;;;0.36;97.10
63088;BME280;49173;43.164;27.786;2024-01-27T03:25:56;100909.69;;;0.31;97.39
63088;BME280;49173;43.164;27.786;2024-01-27T03:28:22;100911.44;;;0.32;98.04
63088;BME280;49173;43.164;27.786;2024-01-27T03:30:47;100896.44;;;0.34;97.97
63088;BME280;49173;43.164;27.786;2024-01-27T03:33:13;100900.84;;;0.40;98.07
63088;BME280;49173;43.164;27.786;2024-01-27T03:35:39;100894.69;;;0.33;97.90
63088;BME280;49173;43.164;27.786;2024-01-27T03:38:07;100902.63;;;0.32;98.05
63088;BME280;49173;43.164;27.786;2024-01-27T03:40:33;100895.56;;;0.34;98.12
63088;BME280;49173;43.164;27.786;2024-01-27T03:42:58;100887.63;;;0.41;97.65
63088;BME280;49173;43.164;27.786;2024-01-27T03:45:24;100887.66;;;0.38;97.95
63088;BME280;49173;43.164;27.786;2024-01-27T03:47:49;100883.25;;;0.37;97.96
63088;BME280;49173;43.164;27.786;2024-01-27T03:50:15;100894.69;;;0.38;98.02
63088;BME280;49173;43.164;27.786;2024-01-27T03:52:41;100892.97;;;0.31;97.98
63088;BME280;49173;43.164;27.786;2024-01-27T03:55:07;100891.19;;;0.36;97.88
63088;BME280;49173;43.164;27.786;2024-01-27T03:57:32;100883.25;;;0.39;98.08
63088;BME280;49173;43.164;27.786;2024-01-27T03:59:58;100898.19;;;0.40;97.78
63088;BME280;49173;43.164;27.786;2024-01-27T04:02:23;100901.72;;;0.39;97.87
63088;BME280;49173;43.164;27.786;2024-01-27T04:04:51;100905.22;;;0.41;97.74
63088;BME280;49173;43.164;27.786;2024-01-27T04:07:17;100895.53;;;0.44;98.20
63088;BME280;49173;43.164;27.786;2024-01-27T04:09:42;100892.91;;;0.44;97.74
63088;BME280;49173;43.164;27.786;2024-01-27T04:12:08;100899.94;;;0.44;98.28
63088;BME280;49173;43.164;27.786;2024-01-27T04:14:34;100909.63;;;0.43;98.00
63088;BME280;49173;43.164;27.786;2024-01-27T04:16:59;100914.91;;;0.42;98.17
63088;BME280;49173;43.164;27.786;2024-01-27T04:19:25;100914.94;;;0.33;98.16
63088;BME280;49173;43.164;27.786;2024-01-27T04:21:50;100914.97;;;0.30;97.96
63088;BME280;49173;43.164;27.786;2024-01-27T04:24:16;100914.06;;;0.32;98.09
63088;BME280;49173;43.164;27.786;2024-01-27T04:26:41;100909.72;;;0.22;97.67
63088;BME280;49173;43.164;27.786;2024-01-27T04:29:07;100916.72;;;0.27;97.29
63088;BME280;49173;43.164;27.786;2024-01-27T04:31:33;100917.63;;;0.23;97.09
63088;BME280;49173;43.164;27.786;2024-01-27T04:33:59;100905.31;;;0.21;96.23
63088;BME280;49173;43.164;27.786;2024-01-27T04:36:27;100902.72;;;0.16;96.21
63088;BME280;49173;43.164;27.786;2024-01-27T04:38:53;100900.09;;;0.04;96.10
63088;BME280;49173;43.164;27.786;2024-01-27T04:41:19;100915.09;;;-0.04;96.52
63088;BME280;49173;43.164;27.786;2024-01-27T04:43:45;100905.41;;;-0.02;96.58
63088;BME280;49173;43.164;27.786;2024-01-27T04:46:10;100890.47;;;0.00;96.93
63088;BME280;49173;43.164;27.786;2024-01-27T04:48:36;100887.81;;;0.00;96.85
63088;BME280;49173;43.164;27.786;2024-01-27T04:51:01;100893.09;;;-0.03;97.50
63088;BME280;49173;43.164;27.786;2024-01-27T04:53:27;100895.75;;;0.00;97.44
63088;BME280;49173;43.164;27.786;2024-01-27T04:55:52;100892.19;;;-0.02;97.74
63088;BME280;49173;43.164;27.786;2024-01-27T04:58:18;100883.41;;;-0.01;97.76
63088;BME280;49173;43.164;27.786;2024-01-27T05:00:43;100878.09;;;0.07;97.93
63088;BME280;49173;43.164;27.786;2024-01-27T05:03:09;100872.84;;;0.04;97.93
63088;BME280;49173;43.164;27.786;2024-01-27T05:05:41;100859.63;;;0.08;98.36
63088;BME280;49173;43.164;27.786;2024-01-27T05:08:07;100857.88;;;0.10;98.63
63088;BME280;49173;43.164;27.786;2024-01-27T05:10:33;100861.38;;;0.12;98.52
63088;BME280;49173;43.164;27.786;2024-01-27T05:12:59;100857.84;;;0.16;98.41
63088;BME280;49173;43.164;27.786;2024-01-27T05:15:24;100866.59;;;0.20;98.45
63088;BME280;49173;43.164;27.786;2024-01-27T05:17:50;100870.13;;;0.20;98.51
63088;BME280;49173;43.164;27.786;2024-01-27T05:20:16;100848.13;;;0.23;98.12
63088;BME280;49173;43.164;27.786;2024-01-27T05:22:42;100845.50;;;0.21;98.12
63088;BME280;49173;43.164;27.786;2024-01-27T05:25:08;100854.28;;;0.23;98.12
63088;BME280;49173;43.164;27.786;2024-01-27T05:27:36;100859.53;;;0.30;98.37
63088;BME280;49173;43.164;27.786;2024-01-27T05:30:02;100863.94;;;0.29;98.10
63088;BME280;49173;43.164;27.786;2024-01-27T05:32:27;100862.19;;;0.25;98.68
63088;BME280;49173;43.164;27.786;2024-01-27T05:34:53;100865.69;;;0.32;98.56
63088;BME280;49173;43.164;27.786;2024-01-27T05:37:18;100865.63;;;0.39;98.41
63088;BME280;49173;43.164;27.786;2024-01-27T05:39:44;100863.91;;;0.37;98.18
63088;BME280;49173;43.164;27.786;2024-01-27T05:42:09;100856.03;;;0.24;98.41
63088;BME280;49173;43.164;27.786;2024-01-27T05:44:35;100854.25;;;0.28;99.18
63088;BME280;49173;43.164;27.786;2024-01-27T05:47:01;100852.50;;;0.25;99.27
63088;BME280;49173;43.164;27.786;2024-01-27T05:49:26;100854.25;;;0.30;98.85
63088;BME280;49173;43.164;27.786;2024-01-27T05:51:52;100851.63;;;0.25;98.97
63088;BME280;49173;43.164;27.786;2024-01-27T05:54:17;100852.50;;;0.29;99.25
63088;BME280;49173;43.164;27.786;2024-01-27T05:56:43;100845.47;;;0.24;99.53
63088;BME280;49173;43.164;27.786;2024-01-27T05:59:08;100847.25;;;0.24;99.61
63088;BME280;49173;43.164;27.786;2024-01-27T06:01:34;100849.03;;;0.22;100.00
63088;BME280;49173;43.164;27.786;2024-01-27T06:03:59;100851.66;;;0.22;100.00
63088;BME280;49173;43.164;27.786;2024-01-27T06:06:25;100846.38;;;0.23;100.00
63088;BME280;49173;43.164;27.786;2024-01-27T06:08:51;100847.22;;;0.29;100.00
63088;BME280;49173;43.164;27.786;2024-01-27T06:11:24;100841.06;;;0.30;99.91
63088;BME280;49173;43.164;27.786;2024-01-27T06:13:49;100832.19;;;0.35;99.63
63088;BME280;49173;43.164;27.786;2024-01-27T06:16:15;100840.13;;;0.38;99.82
63088;BME280;49173;43.164;27.786;2024-01-27T06:18:43;100832.16;;;0.41;99.57
63088;BME280;49173;43.164;27.786;2024-01-27T06:21:10;100839.19;;;0.47;99.82
63088;BME280;49173;43.164;27.786;2024-01-27T06:23:35;100827.72;;;0.48;99.89
63088;BME280;49173;43.164;27.786;2024-01-27T06:26:07;100825.06;;;0.52;99.58
63088;BME280;49173;43.164;27.786;2024-01-27T06:28:33;100823.28;;;0.54;99.96
63088;BME280;49173;43.164;27.786;2024-01-27T06:31:00;100814.50;;;0.54;99.86
63088;BME280;49173;43.164;27.786;2024-01-27T06:33:29;100821.53;;;0.55;99.90
63088;BME280;49173;43.164;27.786;2024-01-27T06:35:54;100825.03;;;0.59;100.00
63088;BME280;49173;43.164;27.786;2024-01-27T06:38:20;100827.66;;;0.60;100.00
63088;BME280;49173;43.164;27.786;2024-01-27T06:40:45;100825.88;;;0.62;100.00
63088;BME280;49173;43.164;27.786;2024-01-27T06:43:12;100825.88;;;0.65;100.00
63088;BME280;49173;43.164;27.786;2024-01-27T06:45:38;100824.03;;;0.70;100.00
63088;BME280;49173;43.164;27.786;2024-01-27T06:48:04;100827.56;;;0.74;100.00
63088;BME280;49173;43.164;27.786;2024-01-27T06:50:30;100824.91;;;0.78;100.00
63088;BME280;49173;43.164;27.786;2024-01-27T06:52:56;100838.03;;;0.83;100.00
63088;BME280;49173;43.164;27.786;2024-01-27T06:55:22;100827.47;;;0.86;100.00
63088;BME280;49173;43.164;27.786;2024-01-27T06:57:48;100826.53;;;0.93;100.00
63088;BME280;49173;43.164;27.786;2024-01-27T07:00:13;100827.34;;;1.00;100.00
63088;BME280;49173;43.164;27.786;2024-01-27T07:02:39;100832.56;;;1.07;100.00
63088;BME280;49173;43.164;27.786;2024-01-27T07:05:07;100842.22;;;1.13;100.00
63088;BME280;49173;43.164;27.786;2024-01-27T07:07:33;100836.88;;;1.18;100.00
63088;BME280;49173;43.164;27.786;2024-01-27T07:09:58;100831.56;;;1.21;100.00
63088;BME280;49173;43.164;27.786;2024-01-27T07:12:25;100838.56;;;1.26;100.00
63088;BME280;49173;43.164;27.786;2024-01-27T07:14:51;100827.06;;;1.30;100.00
63088;BME280;49173;43.164;27.786;2024-01-27T07:17:17;100818.22;;;1.34;100.00
63088;BME280;49173;43.164;27.786;2024-01-27T07:19:43;100824.38;;;1.36;100.00
63088;BME280;49173;43.164;27.786;2024-01-27T07:22:08;100827.84;;;1.40;100.00
63088;BME280;49173;43.164;27.786;2024-01-27T07:24:34;100832.25;;;1.43;100.00
63088;BME280;49173;43.164;27.786;2024-01-27T07:27:00;100830.44;;;1.45;100.00
63088;BME280;49173;43.164;27.786;2024-01-27T07:29:26;100840.97;;;1.51;100.00
63088;BME280;49173;43.164;27.786;2024-01-27T07:31:51;100834.75;;;1.53;99.66
63088;BME280;49173;43.164;27.786;2024-01-27T07:34:17;100841.78;;;1.54;100.00
63088;BME280;49173;43.164;27.786;2024-01-27T07:36:43;100837.38;;;1.58;99.66
63088;BME280;49173;43.164;27.786;2024-01-27T07:39:09;100833.81;;;1.59;99.40
63088;BME280;49173;43.164;27.786;2024-01-27T07:41:34;100836.44;;;1.60;99.30
63088;BME280;49173;43.164;27.786;2024-01-27T07:44:10;100832.88;;;1.64;99.70
63088;BME280;49173;43.164;27.786;2024-01-27T07:46:37;100827.53;;;1.71;99.85
63088;BME280;49173;43.164;27.786;2024-01-27T07:49:02;100834.53;;;1.75;100.00
63088;BME280;49173;43.164;27.786;2024-01-27T07:51:32;100832.72;;;1.78;100.00
63088;BME280;49173;43.164;27.786;2024-01-27T07:53:58;100826.50;;;1.81;100.00
63088;BME280;49173;43.164;27.786;2024-01-27T07:56:23;100820.34;;;1.83;100.00
63088;BME280;49173;43.164;27.786;2024-01-27T07:58:49;100827.34;;;1.86;100.00
63088;BME280;49173;43.164;27.786;2024-01-27T08:01:15;100815.84;;;1.88;100.00
63088;BME280;49173;43.164;27.786;2024-01-27T08:03:41;100821.09;;;1.91;100.00
63088;BME280;49173;43.164;27.786;2024-01-27T08:06:07;100807.81;;;1.98;100.00
63088;BME280;49173;43.164;27.786;2024-01-27T08:08:35;100810.34;;;2.04;100.00
63088;BME280;49173;43.164;27.786;2024-01-27T08:11:00;100802.34;;;2.08;100.00
63088;BME280;49173;43.164;27.786;2024-01-27T08:13:26;100800.53;;;2.13;100.00
63088;BME280;49173;43.164;27.786;2024-01-27T08:15:52;100809.28;;;2.18;100.00
63088;BME280;49173;43.164;27.786;2024-01-27T08:18:17;100811.84;;;2.25;100.00
63088;BME280;49173;43.164;27.786;2024-01-27T08:20:44;100799.44;;;2.28;100.00
63088;BME280;49173;43.164;27.786;2024-01-27T08:23:10;100787.00;;;2.32;100.00
63088;BME280;49173;43.164;27.786;2024-01-27T08:25:36;100783.38;;;2.39;100.00
63088;BME280;49173;43.164;27.786;2024-01-27T08:28:02;100780.59;;;2.48;100.00
63088;BME280;49173;43.164;27.786;2024-01-27T08:30:27;100781.38;;;2.56;100.00
63088;BME280;49173;43.164;27.786;2024-01-27T08:32:53;100793.59;;;2.65;100.00
63088;BME280;49173;43.164;27.786;2024-01-27T08:35:18;100794.34;;;2.73;100.00
63088;BME280;49173;43.164;27.786;2024-01-27T08:37:44;100797.72;;;2.81;100.00
63088;BME280;49173;43.164;27.786;2024-01-27T08:40:10;100788.78;;;2.88;100.00
63088;BME280;49173;43.164;27.786;2024-01-27T08:42:37;100793.94;;;2.97;100.00
63088;BME280;49173;43.164;27.786;2024-01-27T08:45:03;100797.38;;;3.02;100.00
63088;BME280;49173;43.164;27.786;2024-01-27T08:47:28;100793.75;;;3.08;100.00
63088;BME280;49173;43.164;27.786;2024-01-27T08:49:54;100791.81;;;3.18;100.00
63088;BME280;49173;43.164;27.786;2024-01-27T08:52:19;100786.47;;;3.19;100.00
63088;BME280;49173;43.164;27.786;2024-01-27T08:54:45;100792.66;;;3.20;100.00
63088;BME280;49173;43.164;27.786;2024-01-27T08:57:10;100791.72;;;3.22;100.00
63088;BME280;49173;43.164;27.786;2024-01-27T08:59:36;100791.72;;;3.22;100.00
63088;BME280;49173;43.164;27.786;2024-01-27T09:02:02;100783.72;;;3.24;100.00
63088;BME280;49173;43.164;27.786;2024-01-27T09:04:27;100787.25;;;3.26;100.00
63088;BME280;49173;43.164;27.786;2024-01-27T09:06:53;100773.03;;;3.28;100.00
63088;BME280;49173;43.164;27.786;2024-01-27T09:09:18;100769.41;;;3.34;100.00
63088;BME280;49173;43.164;27.786;2024-01-27T09:11:44;100773.66;;;3.43;100.00
63088;BME280;49173;43.164;27.786;2024-01-27T09:14:11;100761.16;;;3.49;100.00
63088;BME280;49173;43.164;27.786;2024-01-27T09:16:36;100762.72;;;3.60;100.00
63088;BME280;49173;43.164;27.786;2024-01-27T09:19:02;100766.97;;;3.68;100.00
63088;BME280;49173;43.164;27.786;2024-01-27T09:21:28;100767.81;;;3.70;100.00
63088;BME280;49173;43.164;27.786;2024-01-27T09:23:55;100771.25;;;3.75;100.00
63088;BME280;49173;43.164;27.786;2024-01-27T09:26:21;100767.56;;;3.82;100.00
63088;BME280;49173;43.164;27.786;2024-01-27T09:28:48;100772.63;;;3.95;100.00
63088;BME280;49173;43.164;27.786;2024-01-27T09:31:21;100769.81;;;4.02;100.00
63088;BME280;49173;43.164;27.786;2024-01-27T09:33:49;100773.94;;;4.14;100.00
63088;BME280;49173;43.164;27.786;2024-01-27T09:36:14;100771.97;;;4.24;100.00
63088;BME280;49173;43.164;27.786;2024-01-27T09:38:40;100778.78;;;4.35;100.00
63088;BME280;49173;43.164;27.786;2024-01-27T09:41:05;100779.56;;;4.40;100.00
63088;BME280;49173;43.164;27.786;2024-01-27T09:43:31;100778.69;;;4.40;100.00
63088;BME280;49173;43.164;27.786;2024-01-27T09:45:57;100792.06;;;4.35;100.00
63088;BME280;49173;43.164;27.786;2024-01-27T09:48:23;100789.50;;;4.32;100.00
63088;BME280;49173;43.164;27.786;2024-01-27T09:50:49;100780.69;;;4.30;100.00
63088;BME280;49173;43.164;27.786;2024-01-27T09:53:15;100773.78;;;4.23;100.00
63088;BME280;49173;43.164;27.786;2024-01-27T09:55:41;100778.25;;;4.20;100.00
63088;BME280;49173;43.164;27.786;2024-01-27T09:58:06;100773.03;;;4.17;100.00
63088;BME280;49173;43.164;27.786;2024-01-27T10:00:33;100777.53;;;4.13;100.00
63088;BME280;49173;43.164;27.786;2024-01-27T10:03:01;100777.59;;;4.10;100.00
63088;BME280;49173;43.164;27.786;2024-01-27T10:05:28;100772.28;;;4.10;100.00
63088;BME280;49173;43.164;27.786;2024-01-27T10:07:54;100781.03;;;4.13;100.00
63088;BME280;49173;43.164;27.786;2024-01-27T10:10:20;100774.81;;;4.14;100.00
63088;BME280;49173;43.164;27.786;2024-01-27T10:12:45;100774.81;;;4.14;100.00
63088;BME280;49173;43.164;27.786;2024-01-27T10:15:19;100781.00;;;4.15;100.00
63088;BME280;49173;43.164;27.786;2024-01-27T10:17:45;100777.53;;;4.13;99.65
63088;BME280;49173;43.164;27.786;2024-01-27T10:20:11;100774.91;;;4.11;99.09
63088;BME280;49173;43.164;27.786;2024-01-27T10:22:39;100774.94;;;4.10;98.72
63088;BME280;49173;43.164;27.786;2024-01-27T10:25:08;100770.50;;;4.10;98.81
63088;BME280;49173;43.164;27.786;2024-01-27T10:27:35;100767.75;;;4.13;99.11
63088;BME280;49173;43.164;27.786;2024-01-27T10:30:00;100767.72;;;4.17;99.09
63088;BME280;49173;43.164;27.786;2024-01-27T10:32:26;100758.78;;;4.19;99.09
63088;BME280;49173;43.164;27.786;2024-01-27T10:35:07;100760.44;;;4.25;99.11
63088;BME280;49173;43.164;27.786;2024-01-27T10:37:38;100756.88;;;4.26;98.79
63088;BME280;49173;43.164;27.786;2024-01-27T10:40:08;100761.19;;;4.31;98.87
63088;BME280;49173;43.164;27.786;2024-01-27T10:42:35;100762.81;;;4.37;99.22
63088;BME280;49173;43.164;27.786;2024-01-27T10:45:01;100763.44;;;4.48;99.58
63088;BME280;49173;43.164;27.786;2024-01-27T10:47:27;100761.47;;;4.56;99.33
63088;BME280;49173;43.164;27.786;2024-01-27T10:49:55;100762.19;;;4.63;98.88
63088;BME280;49173;43.164;27.786;2024-01-27T10:52:21;100761.16;;;4.68;97.93
63088;BME280;49173;43.164;27.786;2024-01-27T10:54:48;100761.91;;;4.75;96.35
63088;BME280;49173;43.164;27.786;2024-01-27T10:57:16;100761.81;;;4.78;96.02
63088;BME280;49173;43.164;27.786;2024-01-27T10:59:42;100760.84;;;4.82;95.33
63088;BME280;49173;43.164;27.786;2024-01-27T11:02:10;100756.28;;;4.87;94.92
63088;BME280;49173;43.164;27.786;2024-01-27T11:04:38;100763.19;;;4.94;94.44
63088;BME280;49173;43.164;27.786;2024-01-27T11:07:04;100761.31;;;4.98;92.96
63088;BME280;49173;43.164;27.786;2024-01-27T11:09:31;100760.38;;;5.01;91.44
63088;BME280;49173;43.164;27.786;2024-01-27T11:11:57;100771.84;;;5.03;91.83
63088;BME280;49173;43.164;27.786;2024-01-27T11:14:23;100770.88;;;5.05;91.74
63088;BME280;49173;43.164;27.786;2024-01-27T11:16:54;100771.84;;;5.03;90.99
63088;BME280;49173;43.164;27.786;2024-01-27T11:19:19;100767.44;;;5.00;89.96
63088;BME280;49173;43.164;27.786;2024-01-27T11:21:45;100769.28;;;4.98;90.11
63088;BME280;49173;43.164;27.786;2024-01-27T11:24:17;100771.91;;;5.00;90.61
63088;BME280;49173;43.164;27.786;2024-01-27T11:26:43;100768.41;;;4.97;91.07
63088;BME280;49173;43.164;27.786;2024-01-27T11:29:09;100766.72;;;4.95;90.96
63088;BME280;49173;43.164;27.786;2024-01-27T11:31:43;100768.47;;;4.96;91.37
63088;BME280;49173;43.164;27.786;2024-01-27T11:34:10;100773.81;;;4.94;91.99
63088;BME280;49173;43.164;27.786;2024-01-27T11:36:38;100765.88;;;4.93;92.27
63088;BME280;49173;43.164;27.786;2024-01-27T11:39:03;100767.78;;;4.88;92.63
63088;BME280;49173;43.164;27.786;2024-01-27T11:41:29;100777.56;;;4.87;92.37
63088;BME280;49173;43.164;27.786;2024-01-27T11:43:55;100776.75;;;4.84;92.51
63088;BME280;49173;43.164;27.786;2024-01-27T11:46:22;100774.22;;;4.79;92.64
63088;BME280;49173;43.164;27.786;2024-01-27T11:48:47;100786.78;;;4.73;92.72
63088;BME280;49173;43.164;27.786;2024-01-27T11:51:14;100780.75;;;4.64;92.97
63088;BME280;49173;43.164;27.786;2024-01-27T11:53:40;100780.75;;;4.64;92.95
63088;BME280;49173;43.164;27.786;2024-01-27T11:56:06;100783.53;;;4.60;93.16
63088;BME280;49173;43.164;27.786;2024-01-27T11:58:31;100774.78;;;4.55;93.41
63088;BME280;49173;43.164;27.786;2024-01-27T12:00:57;100784.56;;;4.54;93.93
63088;BME280;49173;43.164;27.786;2024-01-27T12:03:26;100783.72;;;4.51;94.34
63088;BME280;49173;43.164;27.786;2024-01-27T12:05:52;100784.69;;;4.48;94.76
63088;BME280;49173;43.164;27.786;2024-01-27T12:08:18;100783.78;;;4.49;95.41
63088;BME280;49173;43.164;27.786;2024-01-27T12:10:45;100776.66;;;4.51;96.06
63088;BME280;49173;43.164;27.786;2024-01-27T12:13:12;100775.66;;;4.55;96.24
63088;BME280;49173;43.164;27.786;2024-01-27T12:15:38;100774.72;;;4.58;96.24
63088;BME280;49173;43.164;27.786;2024-01-27T12:18:04;100785.31;;;4.59;96.39
63088;BME280;49173;43.164;27.786;2024-01-27T12:20:29;100780.94;;;4.58;96.53
63088;BME280;49173;43.164;27.786;2024-01-27T12:23:05;100782.63;;;4.61;97.08
63088;BME280;49173;43.164;27.786;2024-01-27T12:25:31;100791.47;;;4.61;97.31
63088;BME280;49173;43.164;27.786;2024-01-27T12:27:57;100784.31;;;4.63;97.88
63088;BME280;49173;43.164;27.786;2024-01-27T12:30:26;100788.63;;;4.69;98.19
63088;BME280;49173;43.164;27.786;2024-01-27T12:32:52;100783.25;;;4.71;98.66
63088;BME280;49173;43.164;27.786;2024-01-27T12:35:17;100792.94;;;4.75;98.82
63088;BME280;49173;43.164;27.786;2024-01-27T12:37:43;100794.59;;;4.79;99.11
63088;BME280;49173;43.164;27.786;2024-01-27T12:40:18;100792.78;;;4.81;99.10
63088;BME280;49173;43.164;27.786;2024-01-27T12:42:44;100796.19;;;4.86;98.52